sensor_id;sensor_type;location;lat;lon;timestamp;pressure;altitude;pressure_sealevel;temperature;humidity
50349;BME280;36250;48.740;22.174;2022-08-04T00:00:10;100424.09;;;19.73;62.25
50349;BME280;36250;48.740;22.174;2022-08-04T00:08:33;100416.75;;;19.68;62.05
50349;BME280;36250;48.740;22.174;2022-08-04T00:11:02;100416.19;;;19.66;62.20
50349;BME280;36250;48.740;22.174;2022-08-04T00:13:31;100425.88;;;19.67;62.16
50349;BME280;36250;48.740;22.174;2022-08-04T00:16:06;100419.13;;;19.65;62.03
50349;BME280;36250;48.740;22.174;2022-08-04T00:18:45;100421.00;;;19.64;61.82
50349;BME280;36250;48.740;22.174;2022-08-04T00:21:15;100423.44;;;19.66;61.89
50349;BME280;36250;48.740;22.174;2022-08-04T00:23:44;100423.13;;;19.62;61.70
50349;BME280;36250;48.740;22.174;2022-08-04T00:26:09;100423.84;;;19.58;62.08
50349;BME280;36250;48.740;22.174;2022-08-04T00:28:36;100415.41;;;19.49;62.36
50349;BME280;36250;48.740;22.174;2022-08-04T00:31:09;100423.53;;;19.37;62.99
50349;BME280;36250;48.740;22.174;2022-08-04T00:33:36;100423.69;;;19.30;63.19
50349;BME280;36250;48.740;22.174;2022-08-04T00:36:02;100428.50;;;19.28;63.35
50349;BME280;36250;48.740;22.174;2022-08-04T00:38:28;100430.88;;;19.24;63.63
50349;BME280;36250;48.740;22.174;2022-08-04T00:41:16;100427.63;;;19.22;63.75
50349;BME280;36250;48.740;22.174;2022-08-04T00:44:12;100426.56;;;19.23;63.39
50349;BME280;36250;48.740;22.174;2022-08-04T00:55:04;100426.22;;;19.37;62.50
50349;BME280;36250;48.740;22.174;2022-08-04T00:58:05;100432.88;;;19.34;62.97
50349;BME280;36250;48.740;22.174;2022-08-04T01:01:02;100424.75;;;19.29;63.00
50349;BME280;36250;48.740;22.174;2022-08-04T01:04:01;100423.13;;;19.28;62.93
50349;BME280;36250;48.740;22.174;2022-08-04T01:17:24;100429.16;;;19.18;63.50
50349;BME280;36250;48.740;22.174;2022-08-04T01:20:10;100436.63;;;19.16;63.42
50349;BME280;36250;48.740;22.174;2022-08-04T01:25:59;100422.72;;;19.02;64.45
50349;BME280;36250;48.740;22.174;2022-08-04T01:29:02;100432.97;;;18.93;64.56
50349;BME280;36250;48.740;22.174;2022-08-04T01:31:54;100442.72;;;18.82;65.76
50349;BME280;36250;48.740;22.174;2022-08-04T01:34:22;100430.69;;;18.85;65.19
50349;BME280;36250;48.740;22.174;2022-08-04T01:39:39;100435.00;;;18.86;65.35
50349;BME280;36250;48.740;22.174;2022-08-04T01:42:09;100429.19;;;18.77;66.06
50349;BME280;36250;48.740;22.174;2022-08-04T01:44:36;100429.19;;;18.77;65.45
50349;BME280;36250;48.740;22.174;2022-08-04T01:47:02;100434.44;;;18.84;65.18
50349;BME280;36250;48.740;22.174;2022-08-04T01:49:30;100420.75;;;18.86;64.93
50349;BME280;36250;48.740;22.174;2022-08-04T01:51:56;100422.66;;;18.85;65.30
50349;BME280;36250;48.740;22.174;2022-08-04T01:54:22;100419.38;;;18.83;64.90
50349;BME280;36250;48.740;22.174;2022-08-04T01:56:52;100429.38;;;18.88;65.19
50349;BME280;36250;48.740;22.174;2022-08-04T01:59:20;100427.09;;;18.79;65.35
50349;BME280;36250;48.740;22.174;2022-08-04T02:01:47;100423.59;;;18.79;65.08
50349;BME280;36250;48.740;22.174;2022-08-04T02:04:18;100422.22;;;18.76;65.28
50349;BME280;36250;48.740;22.174;2022-08-04T02:12:42;100413.19;;;18.53;66.67
50349;BME280;36250;48.740;22.174;2022-08-04T02:15:29;100414.88;;;18.43;67.64
50349;BME280;36250;48.740;22.174;2022-08-04T02:18:04;100417.19;;;18.39;67.80
50349;BME280;36250;48.740;22.174;2022-08-04T02:20:34;100418.50;;;18.36;67.96
50349;BME280;36250;48.740;22.174;2022-08-04T02:23:09;100417.19;;;18.39;67.40
50349;BME280;36250;48.740;22.174;2022-08-04T02:25:41;100404.34;;;18.53;65.78
50349;BME280;36250;48.740;22.174;2022-08-04T02:36:34;100397.72;;;18.73;65.67
50349;BME280;36250;48.740;22.174;2022-08-04T02:39:02;100396.34;;;18.70;65.45
50349;BME280;36250;48.740;22.174;2022-08-04T02:41:29;100394.94;;;18.67;65.97
50349;BME280;36250;48.740;22.174;2022-08-04T02:43:57;100397.53;;;18.62;66.05
50349;BME280;36250;48.740;22.174;2022-08-04T02:46:23;100398.00;;;18.59;66.28
50349;BME280;36250;48.740;22.174;2022-08-04T02:48:50;100401.88;;;18.51;67.03
50349;BME280;36250;48.740;22.174;2022-08-04T02:51:22;100390.56;;;18.49;67.34
50349;BME280;36250;48.740;22.174;2022-08-04T02:53:52;100397.81;;;18.49;66.86
50349;BME280;36250;48.740;22.174;2022-08-04T02:56:19;100395.94;;;18.49;66.71
50349;BME280;36250;48.740;22.174;2022-08-04T02:58:50;100404.94;;;18.43;67.48
50349;BME280;36250;48.740;22.174;2022-08-04T03:01:17;100395.88;;;18.32;67.91
50349;BME280;36250;48.740;22.174;2022-08-04T03:09:28;100405.81;;;18.32;67.81
50349;BME280;36250;48.740;22.174;2022-08-04T03:15:32;100406.75;;;18.26;68.22
50349;BME280;36250;48.740;22.174;2022-08-04T03:21:21;100411.09;;;18.15;68.92
50349;BME280;36250;48.740;22.174;2022-08-04T03:33:00;100410.16;;;18.09;69.20
50349;BME280;36250;48.740;22.174;2022-08-04T03:46:46;100410.69;;;18.35;68.55
50349;BME280;36250;48.740;22.174;2022-08-04T03:52:06;100413.34;;;18.47;68.10
50349;BME280;36250;48.740;22.174;2022-08-04T03:57:39;100418.03;;;18.68;67.17
50349;BME280;36250;48.740;22.174;2022-08-04T04:00:16;100414.72;;;18.78;67.10
50349;BME280;36250;48.740;22.174;2022-08-04T04:08:58;100424.94;;;18.93;67.28
50349;BME280;36250;48.740;22.174;2022-08-04T04:20:20;100417.03;;;19.50;64.43
50349;BME280;36250;48.740;22.174;2022-08-04T04:25:46;100416.72;;;19.86;62.75
50349;BME280;36250;48.740;22.174;2022-08-04T04:28:29;100420.25;;;20.03;62.03
50349;BME280;36250;48.740;22.174;2022-08-04T04:31:25;100410.47;;;20.19;61.23
50349;BME280;36250;48.740;22.174;2022-08-04T04:34:07;100404.22;;;20.36;60.93
50349;BME280;36250;48.740;22.174;2022-08-04T04:36:46;100404.66;;;20.50;60.16
50349;BME280;36250;48.740;22.174;2022-08-04T04:39:35;100403.69;;;20.61;60.21
50349;BME280;36250;48.740;22.174;2022-08-04T04:50:13;100402.75;;;21.00;58.34
50349;BME280;36250;48.740;22.174;2022-08-04T04:52:52;100400.72;;;21.12;57.82
50349;BME280;36250;48.740;22.174;2022-08-04T04:55:28;100400.00;;;21.22;57.61
50349;BME280;36250;48.740;22.174;2022-08-04T04:57:57;100403.84;;;21.32;57.46
50349;BME280;36250;48.740;22.174;2022-08-04T05:00:33;100403.34;;;21.40;56.54
50349;BME280;36250;48.740;22.174;2022-08-04T05:14:03;100420.66;;;21.87;56.47
50349;BME280;36250;48.740;22.174;2022-08-04T05:16:31;100415.31;;;21.97;55.84
50349;BME280;36250;48.740;22.174;2022-08-04T05:21:41;100418.38;;;22.17;54.72
50349;BME280;36250;48.740;22.174;2022-08-04T05:24:11;100416.53;;;22.27;54.62
50349;BME280;36250;48.740;22.174;2022-08-04T05:26:45;100419.28;;;22.43;54.57
50349;BME280;36250;48.740;22.174;2022-08-04T05:29:21;100427.72;;;22.57;54.10
50349;BME280;36250;48.740;22.174;2022-08-04T05:31:50;100418.84;;;22.72;54.86
50349;BME280;36250;48.740;22.174;2022-08-04T05:34:27;100415.34;;;22.82;52.78
50349;BME280;36250;48.740;22.174;2022-08-04T05:37:08;100423.19;;;22.94;52.35
50349;BME280;36250;48.740;22.174;2022-08-04T05:39:38;100420.25;;;23.06;52.79
50349;BME280;36250;48.740;22.174;2022-08-04T05:42:08;100426.47;;;23.17;52.04
50349;BME280;36250;48.740;22.174;2022-08-04T05:44:36;100422.69;;;23.23;52.40
50349;BME280;36250;48.740;22.174;2022-08-04T05:47:02;100421.63;;;23.34;52.12
50349;BME280;36250;48.740;22.174;2022-08-04T05:49:29;100430.53;;;23.45;51.24
50349;BME280;36250;48.740;22.174;2022-08-04T05:51:58;100429.16;;;23.58;50.91
50349;BME280;36250;48.740;22.174;2022-08-04T05:54:25;100424.56;;;23.69;50.47
50349;BME280;36250;48.740;22.174;2022-08-04T05:56:53;100425.88;;;23.82;51.31
50349;BME280;36250;48.740;22.174;2022-08-04T05:59:19;100423.16;;;23.92;49.75
50349;BME280;36250;48.740;22.174;2022-08-04T06:01:46;100417.44;;;24.04;49.79
50349;BME280;36250;48.740;22.174;2022-08-04T06:04:15;100422.06;;;24.04;48.71
50349;BME280;36250;48.740;22.174;2022-08-04T06:06:43;100426.59;;;24.19;49.81
50349;BME280;36250;48.740;22.174;2022-08-04T06:09:09;100419.53;;;24.28;49.15
50349;BME280;36250;48.740;22.174;2022-08-04T06:11:37;100422.16;;;24.38;48.33
50349;BME280;36250;48.740;22.174;2022-08-04T06:14:07;100425.94;;;24.42;48.10
50349;BME280;36250;48.740;22.174;2022-08-04T06:16:37;100424.00;;;24.53;48.02
50349;BME280;36250;48.740;22.174;2022-08-04T06:19:05;100412.03;;;24.59;47.34
50349;BME280;36250;48.740;22.174;2022-08-04T06:21:32;100417.16;;;24.66;47.46
50349;BME280;36250;48.740;22.174;2022-08-04T06:23:59;100415.78;;;24.74;46.83
50349;BME280;36250;48.740;22.174;2022-08-04T06:26:27;100422.25;;;24.78;46.99
50349;BME280;36250;48.740;22.174;2022-08-04T06:28:55;100415.19;;;24.82;47.04
50349;BME280;36250;48.740;22.174;2022-08-04T06:31:21;100414.06;;;24.88;47.07
50349;BME280;36250;48.740;22.174;2022-08-04T06:34:28;100411.22;;;25.09;47.21
50349;BME280;36250;48.740;22.174;2022-08-04T06:36:54;100409.19;;;25.20;46.32
50349;BME280;36250;48.740;22.174;2022-08-04T06:39:21;100409.66;;;25.33;46.35
50349;BME280;36250;48.740;22.174;2022-08-04T06:41:49;100404.19;;;25.38;45.58
50349;BME280;36250;48.740;22.174;2022-08-04T06:44:16;100406.00;;;25.48;45.29
50349;BME280;36250;48.740;22.174;2022-08-04T06:46:43;100411.84;;;25.60;45.01
50349;BME280;36250;48.740;22.174;2022-08-04T06:49:09;100401.16;;;25.69;44.65
50349;BME280;36250;48.740;22.174;2022-08-04T06:51:36;100407.41;;;25.69;44.36
50349;BME280;36250;48.740;22.174;2022-08-04T06:54:03;100403.88;;;25.69;43.67
50349;BME280;36250;48.740;22.174;2022-08-04T06:56:29;100409.84;;;25.71;43.86
50349;BME280;36250;48.740;22.174;2022-08-04T06:58:56;100411.16;;;25.73;43.58
50349;BME280;36250;48.740;22.174;2022-08-04T07:01:25;100406.97;;;25.86;43.83
50349;BME280;36250;48.740;22.174;2022-08-04T07:03:52;100402.81;;;25.94;42.95
50349;BME280;36250;48.740;22.174;2022-08-04T07:06:17;100398.34;;;26.03;42.57
50349;BME280;36250;48.740;22.174;2022-08-04T07:08:45;100408.03;;;26.10;43.22
50349;BME280;36250;48.740;22.174;2022-08-04T07:11:11;100405.22;;;26.20;42.50
50349;BME280;36250;48.740;22.174;2022-08-04T07:13:37;100397.47;;;26.32;42.46
50349;BME280;36250;48.740;22.174;2022-08-04T07:16:03;100397.41;;;26.38;41.96
50349;BME280;36250;48.740;22.174;2022-08-04T07:18:30;100399.16;;;26.47;42.43
50349;BME280;36250;48.740;22.174;2022-08-04T07:20:56;100402.53;;;26.58;41.44
50349;BME280;36250;48.740;22.174;2022-08-04T07:23:23;100396.72;;;26.65;41.22
50349;BME280;36250;48.740;22.174;2022-08-04T07:25:53;100405.91;;;26.69;41.64
50349;BME280;36250;48.740;22.174;2022-08-04T07:28:21;100400.63;;;26.78;40.83
50349;BME280;36250;48.740;22.174;2022-08-04T07:30:48;100398.09;;;26.82;40.57
50349;BME280;36250;48.740;22.174;2022-08-04T07:33:15;100398.28;;;26.90;40.49
50349;BME280;36250;48.740;22.174;2022-08-04T07:35:41;100396.56;;;26.95;40.22
50349;BME280;36250;48.740;22.174;2022-08-04T07:38:07;100394.63;;;27.14;40.86
50349;BME280;36250;48.740;22.174;2022-08-04T07:40:34;100398.66;;;27.17;38.53
50349;BME280;36250;48.740;22.174;2022-08-04T07:43:00;100395.81;;;27.08;39.43
50349;BME280;36250;48.740;22.174;2022-08-04T07:45:26;100391.91;;;27.14;39.50
50349;BME280;36250;48.740;22.174;2022-08-04T07:47:51;100395.97;;;27.31;38.65
50349;BME280;36250;48.740;22.174;2022-08-04T07:50:17;100387.41;;;27.24;37.64
50349;BME280;36250;48.740;22.174;2022-08-04T07:52:45;100396.47;;;27.33;38.88
50349;BME280;36250;48.740;22.174;2022-08-04T07:55:12;100381.59;;;27.44;37.47
50349;BME280;36250;48.740;22.174;2022-08-04T07:57:37;100383.84;;;27.56;37.26
50349;BME280;36250;48.740;22.174;2022-08-04T08:00:04;100380.03;;;27.71;36.76
50349;BME280;36250;48.740;22.174;2022-08-04T08:02:29;100376.31;;;27.81;36.90
50349;BME280;36250;48.740;22.174;2022-08-04T08:04:56;100374.88;;;27.70;34.18
50349;BME280;36250;48.740;22.174;2022-08-04T08:07:21;100372.34;;;27.59;35.12
50349;BME280;36250;48.740;22.174;2022-08-04T08:09:47;100377.59;;;27.70;36.35
50349;BME280;36250;48.740;22.174;2022-08-04T08:12:12;100380.44;;;27.79;34.99
50349;BME280;36250;48.740;22.174;2022-08-04T08:14:38;100369.25;;;27.66;33.24
50349;BME280;36250;48.740;22.174;2022-08-04T08:17:04;100368.75;;;27.64;33.35
50349;BME280;36250;48.740;22.174;2022-08-04T08:19:30;100372.66;;;27.72;32.87
50349;BME280;36250;48.740;22.174;2022-08-04T08:21:56;100381.31;;;27.88;32.01
50349;BME280;36250;48.740;22.174;2022-08-04T08:24:22;100370.75;;;28.00;29.91
50349;BME280;36250;48.740;22.174;2022-08-04T08:26:47;100363.38;;;27.87;27.15
50349;BME280;36250;48.740;22.174;2022-08-04T08:29:13;100364.00;;;27.84;27.54
50349;BME280;36250;48.740;22.174;2022-08-04T08:31:40;100368.53;;;27.88;27.57
50349;BME280;36250;48.740;22.174;2022-08-04T08:34:05;100365.59;;;27.85;28.77
50349;BME280;36250;48.740;22.174;2022-08-04T08:36:38;100371.16;;;27.80;29.02
50349;BME280;36250;48.740;22.174;2022-08-04T08:39:12;100372.38;;;27.87;29.61
50349;BME280;36250;48.740;22.174;2022-08-04T08:57:45;100373.00;;;28.35;30.72
50349;BME280;36250;48.740;22.174;2022-08-04T09:00:20;100373.47;;;28.51;29.85
50349;BME280;36250;48.740;22.174;2022-08-04T09:02:56;100375.66;;;28.26;31.48
50349;BME280;36250;48.740;22.174;2022-08-04T09:05:42;100374.84;;;28.26;32.91
50349;BME280;36250;48.740;22.174;2022-08-04T09:08:37;100377.53;;;28.40;32.72
50349;BME280;36250;48.740;22.174;2022-08-04T09:11:11;100375.63;;;28.12;32.51
50349;BME280;36250;48.740;22.174;2022-08-04T09:14:00;100372.97;;;27.98;32.79
50349;BME280;36250;48.740;22.174;2022-08-04T09:16:37;100377.69;;;28.07;32.22
50349;BME280;36250;48.740;22.174;2022-08-04T09:19:09;100375.34;;;28.14;32.35
50349;BME280;36250;48.740;22.174;2022-08-04T09:25:18;100359.53;;;28.53;31.65
50349;BME280;36250;48.740;22.174;2022-08-04T09:27:45;100364.69;;;28.77;31.05
50349;BME280;36250;48.740;22.174;2022-08-04T09:30:17;100359.19;;;28.68;29.54
50349;BME280;36250;48.740;22.174;2022-08-04T09:35:41;100357.13;;;28.51;29.07
50349;BME280;36250;48.740;22.174;2022-08-04T09:38:19;100351.63;;;28.65;28.78
50349;BME280;36250;48.740;22.174;2022-08-04T09:44:20;100335.03;;;28.98;28.62
50349;BME280;36250;48.740;22.174;2022-08-04T09:47:03;100331.69;;;29.01;28.59
50349;BME280;36250;48.740;22.174;2022-08-04T09:49:40;100338.69;;;28.94;29.52
50349;BME280;36250;48.740;22.174;2022-08-04T09:52:16;100324.13;;;28.98;28.90
50349;BME280;36250;48.740;22.174;2022-08-04T10:00:17;100318.91;;;29.51;28.24
50349;BME280;36250;48.740;22.174;2022-08-04T10:02:54;100318.97;;;29.28;27.99
50349;BME280;36250;48.740;22.174;2022-08-04T10:05:24;100316.69;;;29.22;28.94
50349;BME280;36250;48.740;22.174;2022-08-04T10:08:09;100312.41;;;29.38;28.55
50349;BME280;36250;48.740;22.174;2022-08-04T10:13:47;100310.13;;;29.63;27.71
50349;BME280;36250;48.740;22.174;2022-08-04T10:16:50;100300.16;;;29.58;27.36
50349;BME280;36250;48.740;22.174;2022-08-04T10:19:26;100294.03;;;29.53;27.60
50349;BME280;36250;48.740;22.174;2022-08-04T10:22:00;100304.03;;;29.66;28.43
50349;BME280;36250;48.740;22.174;2022-08-04T10:24:38;100307.44;;;29.89;27.84
50349;BME280;36250;48.740;22.174;2022-08-04T10:27:27;100299.09;;;29.95;27.54
50349;BME280;36250;48.740;22.174;2022-08-04T10:30:01;100297.78;;;29.92;27.81
50349;BME280;36250;48.740;22.174;2022-08-04T10:32:38;100301.97;;;29.81;28.06
50349;BME280;36250;48.740;22.174;2022-08-04T10:35:27;100295.38;;;29.82;27.91
50349;BME280;36250;48.740;22.174;2022-08-04T10:40:33;100291.50;;;29.74;28.08
50349;BME280;36250;48.740;22.174;2022-08-04T10:43:44;100293.00;;;30.15;28.71
50349;BME280;36250;48.740;22.174;2022-08-04T10:46:20;100278.06;;;30.48;27.09
50349;BME280;36250;48.740;22.174;2022-08-04T10:48:56;100283.50;;;30.57;27.27
50349;BME280;36250;48.740;22.174;2022-08-04T10:54:12;100278.38;;;30.55;27.19
50349;BME280;36250;48.740;22.174;2022-08-04T10:56:47;100277.91;;;30.35;27.24
50349;BME280;36250;48.740;22.174;2022-08-04T10:59:16;100277.75;;;30.41;27.03
50349;BME280;36250;48.740;22.174;2022-08-04T11:01:49;100271.31;;;30.63;27.74
50349;BME280;36250;48.740;22.174;2022-08-04T11:04:25;100278.81;;;30.75;26.80
50349;BME280;36250;48.740;22.174;2022-08-04T11:06:55;100270.03;;;30.60;27.21
50349;BME280;36250;48.740;22.174;2022-08-04T11:09:23;100272.13;;;30.46;26.86
50349;BME280;36250;48.740;22.174;2022-08-04T11:11:53;100263.09;;;30.45;27.33
50349;BME280;36250;48.740;22.174;2022-08-04T11:14:23;100265.66;;;30.59;27.07
50349;BME280;36250;48.740;22.174;2022-08-04T11:16:54;100268.88;;;30.53;27.79
50349;BME280;36250;48.740;22.174;2022-08-04T11:19:33;100263.38;;;30.79;27.25
50349;BME280;36250;48.740;22.174;2022-08-04T11:22:08;100259.56;;;30.62;26.13
50349;BME280;36250;48.740;22.174;2022-08-04T11:27:50;100262.75;;;30.82;26.65
50349;BME280;36250;48.740;22.174;2022-08-04T11:30:19;100257.94;;;31.09;26.71
50349;BME280;36250;48.740;22.174;2022-08-04T11:32:52;100255.25;;;31.00;26.04
50349;BME280;36250;48.740;22.174;2022-08-04T11:35:40;100251.34;;;31.10;25.57
50349;BME280;36250;48.740;22.174;2022-08-04T11:40:56;100250.28;;;31.32;25.91
50349;BME280;36250;48.740;22.174;2022-08-04T11:43:28;100247.09;;;30.91;26.30
50349;BME280;36250;48.740;22.174;2022-08-04T11:46:00;100254.78;;;30.98;26.34
50349;BME280;36250;48.740;22.174;2022-08-04T11:48:40;100237.09;;;31.34;26.66
50349;BME280;36250;48.740;22.174;2022-08-04T11:51:09;100229.19;;;31.42;26.31
50349;BME280;36250;48.740;22.174;2022-08-04T11:53:37;100229.41;;;31.28;26.01
50349;BME280;36250;48.740;22.174;2022-08-04T11:56:06;100231.09;;;31.41;26.06
50349;BME280;36250;48.740;22.174;2022-08-04T11:58:33;100228.06;;;31.64;25.22
50349;BME280;36250;48.740;22.174;2022-08-04T12:06:46;100228.91;;;31.56;25.66
50349;BME280;36250;48.740;22.174;2022-08-04T12:12:17;100223.63;;;31.50;26.06
50349;BME280;36250;48.740;22.174;2022-08-04T12:15:07;100228.13;;;31.55;25.74
50349;BME280;36250;48.740;22.174;2022-08-04T12:17:44;100224.91;;;31.53;25.52
50349;BME280;36250;48.740;22.174;2022-08-04T12:20:16;100231.38;;;31.48;24.96
50349;BME280;36250;48.740;22.174;2022-08-04T12:22:47;100217.47;;;31.54;25.27
50349;BME280;36250;48.740;22.174;2022-08-04T12:25:22;100215.97;;;31.65;25.59
50349;BME280;36250;48.740;22.174;2022-08-04T12:27:52;100211.38;;;31.78;25.12
50349;BME280;36250;48.740;22.174;2022-08-04T12:30:19;100210.38;;;31.83;25.37
50349;BME280;36250;48.740;22.174;2022-08-04T12:33:05;100210.31;;;31.91;25.14
50349;BME280;36250;48.740;22.174;2022-08-04T12:35:47;100213.09;;;32.04;25.05
50349;BME280;36250;48.740;22.174;2022-08-04T12:38:20;100203.81;;;31.96;25.17
50349;BME280;36250;48.740;22.174;2022-08-04T12:40:49;100206.00;;;32.03;25.70
50349;BME280;36250;48.740;22.174;2022-08-04T12:43:37;100205.28;;;32.27;24.75
50349;BME280;36250;48.740;22.174;2022-08-04T12:46:08;100203.09;;;32.54;25.08
50349;BME280;36250;48.740;22.174;2022-08-04T12:48:36;100197.16;;;32.77;23.98
50349;BME280;36250;48.740;22.174;2022-08-04T12:51:01;100186.31;;;32.80;23.82
50349;BME280;36250;48.740;22.174;2022-08-04T12:53:32;100181.84;;;32.63;23.73
50349;BME280;36250;48.740;22.174;2022-08-04T12:56:00;100189.84;;;32.69;23.87
50349;BME280;36250;48.740;22.174;2022-08-04T12:58:37;100184.13;;;32.74;23.82
50349;BME280;36250;48.740;22.174;2022-08-04T13:01:06;100184.28;;;32.65;24.01
50349;BME280;36250;48.740;22.174;2022-08-04T13:03:40;100177.50;;;32.75;23.49
50349;BME280;36250;48.740;22.174;2022-08-04T13:06:07;100178.03;;;32.89;23.51
50349;BME280;36250;48.740;22.174;2022-08-04T13:08:37;100170.78;;;32.85;23.75
50349;BME280;36250;48.740;22.174;2022-08-04T13:11:04;100171.84;;;32.92;23.45
50349;BME280;36250;48.740;22.174;2022-08-04T13:13:33;100165.22;;;32.93;23.18
50349;BME280;36250;48.740;22.174;2022-08-04T13:16:05;100169.66;;;32.73;22.94
50349;BME280;36250;48.740;22.174;2022-08-04T13:18:36;100170.19;;;32.79;23.82
50349;BME280;36250;48.740;22.174;2022-08-04T13:21:18;100162.34;;;33.15;22.93
50349;BME280;36250;48.740;22.174;2022-08-04T13:23:44;100158.56;;;33.07;23.19
50349;BME280;36250;48.740;22.174;2022-08-04T13:26:14;100162.50;;;33.34;23.46
50349;BME280;36250;48.740;22.174;2022-08-04T13:28:44;100168.72;;;33.72;23.63
50349;BME280;36250;48.740;22.174;2022-08-04T13:31:13;100163.31;;;34.04;22.40
50349;BME280;36250;48.740;22.174;2022-08-04T13:33:43;100163.50;;;33.83;22.21
50349;BME280;36250;48.740;22.174;2022-08-04T13:36:09;100154.94;;;33.56;21.82
50349;BME280;36250;48.740;22.174;2022-08-04T13:38:43;100152.31;;;33.47;22.58
50349;BME280;36250;48.740;22.174;2022-08-04T13:41:10;100149.28;;;33.24;22.80
50349;BME280;36250;48.740;22.174;2022-08-04T13:43:42;100146.50;;;33.36;22.85
50349;BME280;36250;48.740;22.174;2022-08-04T13:46:13;100144.19;;;33.38;23.59
50349;BME280;36250;48.740;22.174;2022-08-04T13:48:40;100149.84;;;33.42;23.61
50349;BME280;36250;48.740;22.174;2022-08-04T13:51:09;100142.25;;;33.51;22.90
50349;BME280;36250;48.740;22.174;2022-08-04T13:53:36;100137.47;;;33.48;22.71
50349;BME280;36250;48.740;22.174;2022-08-04T13:56:04;100138.50;;;33.31;22.90
50349;BME280;36250;48.740;22.174;2022-08-04T13:58:33;100128.09;;;33.24;23.10
50349;BME280;36250;48.740;22.174;2022-08-04T14:01:06;100127.38;;;33.12;23.25
50349;BME280;36250;48.740;22.174;2022-08-04T14:03:36;100123.16;;;33.43;22.94
50349;BME280;36250;48.740;22.174;2022-08-04T14:08:51;100124.91;;;33.92;22.02
50349;BME280;36250;48.740;22.174;2022-08-04T14:11:29;100125.47;;;33.98;22.53
50349;BME280;36250;48.740;22.174;2022-08-04T14:13:56;100126.38;;;33.73;21.88
50349;BME280;36250;48.740;22.174;2022-08-04T14:16:22;100119.19;;;33.69;22.19
50349;BME280;36250;48.740;22.174;2022-08-04T14:18:57;100126.03;;;33.75;22.50
50349;BME280;36250;48.740;22.174;2022-08-04T14:21:22;100123.91;;;33.84;22.12
50349;BME280;36250;48.740;22.174;2022-08-04T14:23:50;100111.41;;;33.71;22.05
50349;BME280;36250;48.740;22.174;2022-08-04T14:28:50;100121.91;;;33.97;22.21
50349;BME280;36250;48.740;22.174;2022-08-04T14:31:21;100115.03;;;33.75;22.52
50349;BME280;36250;48.740;22.174;2022-08-04T14:33:49;100110.50;;;33.66;22.63
50349;BME280;36250;48.740;22.174;2022-08-04T14:36:15;100110.38;;;33.63;22.93
50349;BME280;36250;48.740;22.174;2022-08-04T14:38:47;100110.75;;;33.61;22.91
50349;BME280;36250;48.740;22.174;2022-08-04T14:41:13;100113.91;;;33.47;22.94
50349;BME280;36250;48.740;22.174;2022-08-04T14:46:09;100102.03;;;33.31;22.89
50349;BME280;36250;48.740;22.174;2022-08-04T14:48:35;100104.78;;;33.43;22.39
50349;BME280;36250;48.740;22.174;2022-08-04T14:51:01;100097.06;;;33.77;22.43
50349;BME280;36250;48.740;22.174;2022-08-04T14:53:27;100105.75;;;33.79;23.12
50349;BME280;36250;48.740;22.174;2022-08-04T14:55:58;100103.38;;;33.94;22.79
50349;BME280;36250;48.740;22.174;2022-08-04T14:58:28;100101.59;;;33.86;23.10
50349;BME280;36250;48.740;22.174;2022-08-04T15:00:58;100106.97;;;33.82;22.23
50349;BME280;36250;48.740;22.174;2022-08-04T15:03:24;100104.72;;;33.56;23.49
50349;BME280;36250;48.740;22.174;2022-08-04T15:05:52;100111.88;;;33.19;23.56
50349;BME280;36250;48.740;22.174;2022-08-04T15:08:19;100112.41;;;32.97;23.34
50349;BME280;36250;48.740;22.174;2022-08-04T15:10:45;100110.59;;;32.88;23.91
50349;BME280;36250;48.740;22.174;2022-08-04T15:13:11;100103.94;;;32.77;24.29
50349;BME280;36250;48.740;22.174;2022-08-04T15:15:39;100109.19;;;32.82;23.86
50349;BME280;36250;48.740;22.174;2022-08-04T15:18:09;100119.94;;;32.75;24.43
50349;BME280;36250;48.740;22.174;2022-08-04T15:20:35;100107.81;;;32.76;24.31
50349;BME280;36250;48.740;22.174;2022-08-04T15:23:02;100105.44;;;32.74;24.52
50349;BME280;36250;48.740;22.174;2022-08-04T15:25:32;100104.31;;;32.88;24.39
50349;BME280;36250;48.740;22.174;2022-08-04T15:27:59;100103.94;;;33.02;24.75
50349;BME280;36250;48.740;22.174;2022-08-04T15:30:26;100104.53;;;32.95;24.66
50349;BME280;36250;48.740;22.174;2022-08-04T15:32:56;100104.78;;;32.65;24.72
50349;BME280;36250;48.740;22.174;2022-08-04T15:35:25;100114.59;;;32.66;24.96
50349;BME280;36250;48.740;22.174;2022-08-04T15:40:47;100107.94;;;32.55;25.54
50349;BME280;36250;48.740;22.174;2022-08-04T15:49:22;100101.69;;;32.54;25.47
50349;BME280;36250;48.740;22.174;2022-08-04T15:52:02;100100.75;;;32.37;25.67
50349;BME280;36250;48.740;22.174;2022-08-04T15:54:28;100103.25;;;32.43;25.91
50349;BME280;36250;48.740;22.174;2022-08-04T15:56:54;100103.63;;;32.41;26.01
50349;BME280;36250;48.740;22.174;2022-08-04T16:02:36;100095.41;;;35.60;22.80
50349;BME280;36250;48.740;22.174;2022-08-04T16:12:56;100082.25;;;39.37;19.08
50349;BME280;36250;48.740;22.174;2022-08-04T16:20:45;100078.81;;;40.27;18.03
50349;BME280;36250;48.740;22.174;2022-08-04T16:25:43;100087.03;;;39.47;19.46
50349;BME280;36250;48.740;22.174;2022-08-04T16:28:39;100080.53;;;38.40;19.83
50349;BME280;36250;48.740;22.174;2022-08-04T16:31:06;100081.09;;;39.38;19.11
50349;BME280;36250;48.740;22.174;2022-08-04T16:33:32;100088.31;;;40.26;18.40
50349;BME280;36250;48.740;22.174;2022-08-04T16:35:59;100079.69;;;38.32;20.48